createdAt,value
2023-02-27T00:00:46.307Z,101479.00
2023-02-27T00:03:12.872Z,101478.03
2023-02-27T00:05:40.990Z,101486.25
2023-02-27T00:08:08.697Z,101483.59
2023-02-27T00:10:35.330Z,101493.19
2023-02-27T00:13:01.929Z,101487.56
2023-02-27T00:15:30.898Z,101493.19
2023-02-27T00:17:58.539Z,101487.56
2023-02-27T00:20:25.741Z,101488.88
2023-02-27T00:22:52.349Z,101486.91
2023-02-27T00:25:18.925Z,101484.94
2023-02-27T00:27:45.548Z,101488.22
2023-02-27T00:30:13.938Z,101477.00
2023-02-27T00:32:40.593Z,101483.28
2023-02-27T00:35:08.335Z,101473.56
2023-02-27T00:37:35.303Z,101481.47
2023-02-27T00:40:05.035Z,101475.38
2023-02-27T00:42:32.526Z,101479.16
2023-02-27T00:44:59.298Z,101483.59
2023-02-27T00:47:25.993Z,101478.69
2023-02-27T00:49:53.033Z,101476.34
2023-02-27T00:52:19.651Z,101481.31
2023-02-27T00:54:46.306Z,101481.63
2023-02-27T00:57:13.257Z,101477.66
2023-02-27T00:59:41.176Z,101481.28
2023-02-27T01:02:08.197Z,101480.78
2023-02-27T01:04:35.342Z,101480.94
2023-02-27T01:07:01.961Z,101470.88
2023-02-27T01:09:28.689Z,101476.97
2023-02-27T01:11:55.607Z,101475.00
2023-02-27T01:14:22.292Z,101478.97
2023-02-27T01:16:48.935Z,101468.09
2023-02-27T01:19:16.027Z,101468.13
2023-02-27T01:21:43.255Z,101466.78
2023-02-27T01:24:10.288Z,101473.88
2023-02-27T01:26:37.009Z,101466.25
2023-02-27T01:29:06.226Z,101470.06
2023-02-27T01:31:33.359Z,101466.75
2023-02-27T01:34:00.224Z,101464.28
2023-02-27T01:36:26.845Z,101457.53
2023-02-27T01:38:53.669Z,101462.47
2023-02-27T01:41:20.805Z,101462.47
2023-02-27T01:43:56.519Z,101458.81
2023-02-27T01:46:23.650Z,101462.63
2023-02-27T01:48:54.464Z,101461.81
2023-02-27T01:51:21.547Z,101465.91
2023-02-27T01:53:49.228Z,101470.00
2023-02-27T01:56:18.457Z,101466.38
2023-02-27T01:58:46.043Z,101460.44
2023-02-27T02:01:14.341Z,101461.63
2023-02-27T02:03:44.012Z,101461.13
2023-02-27T02:06:11.581Z,101455.19
2023-02-27T02:08:46.684Z,101461.75
2023-02-27T02:11:14.977Z,101462.72
2023-02-27T02:13:41.733Z,101465.00
2023-02-27T02:16:14.390Z,101463.66
2023-02-27T02:18:44.065Z,101456.75
2023-02-27T02:21:13.885Z,101453.13
2023-02-27T02:24:00.276Z,101455.59
2023-02-27T02:26:39.352Z,101458.25
2023-02-27T02:29:15.140Z,101460.34
2023-02-27T02:31:48.119Z,101466.28
2023-02-27T02:34:18.101Z,101470.06
2023-02-27T02:37:03.649Z,101457.06
2023-02-27T02:39:51.728Z,101457.06
2023-02-27T02:42:49.113Z,101459.69
2023-02-27T02:45:22.634Z,101461.00
2023-02-27T02:47:52.240Z,101461.97
2023-02-27T02:50:24.967Z,101457.06
2023-02-27T02:53:01.912Z,101461.34
2023-02-27T02:55:47.991Z,101456.06
2023-02-27T02:58:18.445Z,101467.41
2023-02-27T03:00:48.719Z,101466.59
2023-02-27T03:03:25.197Z,101463.28
2023-02-27T03:05:58.091Z,101470.81
2023-02-27T03:08:31.485Z,101471.47
2023-02-27T03:10:59.766Z,101469.50
2023-02-27T03:13:29.260Z,101473.81
2023-02-27T03:15:59.005Z,101472.66
2023-02-27T03:18:28.690Z,101474.47
2023-02-27T03:20:57.538Z,101472.81
2023-02-27T03:23:29.579Z,101481.56
2023-02-27T03:25:58.223Z,101479.06
2023-02-27T03:28:29.325Z,101480.22
2023-02-27T03:31:07.330Z,101484.31
2023-02-27T03:33:45.780Z,101481.31
2023-02-27T03:36:33.073Z,101486.41
2023-02-27T03:39:03.269Z,101484.16
2023-02-27T03:41:38.919Z,101486.94
2023-02-27T03:44:42.901Z,101495.78
2023-02-27T03:47:09.759Z,101497.75
2023-02-27T03:49:36.483Z,101500.09
2023-02-27T03:52:04.672Z,101494.31
2023-02-27T03:54:36.970Z,101498.63
2023-02-27T03:57:05.133Z,101492.34
2023-02-27T03:59:33.046Z,101503.41
2023-02-27T04:02:00.904Z,101512.63
2023-02-27T04:04:28.666Z,101513.31
2023-02-27T04:07:39.496Z,101512.63
2023-02-27T04:10:06.129Z,101519.88
2023-02-27T04:12:38.723Z,101510.97
2023-02-27T04:15:40.677Z,101513.59
2023-02-27T04:18:07.101Z,101516.56
2023-02-27T04:20:56.860Z,101527.09
2023-02-27T04:23:34.279Z,101517.22
2023-02-27T04:26:19.724Z,101521.50
2023-02-27T04:28:58.011Z,101528.28
2023-02-27T04:31:36.877Z,101533.38
2023-02-27T04:34:27.083Z,101530.91
2023-02-27T04:36:58.975Z,101530.91
2023-02-27T04:39:31.138Z,101530.25
2023-02-27T04:42:03.311Z,101535.97
2023-02-27T04:44:33.173Z,101539.59
2023-02-27T04:47:01.598Z,101544.19
2023-02-27T04:49:42.048Z,101543.50
2023-02-27T04:52:14.718Z,101551.06
2023-02-27T04:54:49.350Z,101546.81
2023-02-27T04:57:22.179Z,101558.47
2023-02-27T04:59:50.339Z,101559.97
2023-02-27T05:02:26.614Z,101551.25
2023-02-27T05:04:56.026Z,101557.47
2023-02-27T05:07:25.721Z,101562.47
2023-02-27T05:09:55.341Z,101564.25
2023-02-27T05:12:48.115Z,101562.59
2023-02-27T05:15:18.493Z,101561.25
2023-02-27T05:17:58.027Z,101560.44
2023-02-27T05:20:25.428Z,101565.69
2023-02-27T05:23:09.721Z,101568.34
2023-02-27T05:25:56.608Z,101559.91
2023-02-27T05:28:33.828Z,101566.31
2023-02-27T05:31:11.477Z,101570.75
2023-02-27T05:33:58.541Z,101565.84
2023-02-27T05:36:30.696Z,101565.38
2023-02-27T05:39:00.059Z,101578.41
2023-02-27T05:41:36.774Z,101569.81
2023-02-27T05:44:10.477Z,101571.47
2023-02-27T05:46:43.807Z,101578.41
2023-02-27T05:49:30.807Z,101575.63
2023-02-27T05:52:01.772Z,101572.38
2023-02-27T05:54:47.490Z,101576.63
2023-02-27T05:57:16.059Z,101583.41
2023-02-27T05:59:55.471Z,101583.19
2023-02-27T06:02:22.224Z,101573.66
2023-02-27T06:04:49.184Z,101574.16
2023-02-27T06:07:16.416Z,101579.13
2023-02-27T06:09:44.707Z,101575.19
2023-02-27T06:12:11.440Z,101584.78
2023-02-27T06:14:38.634Z,101585.31
2023-02-27T06:17:05.609Z,101586.44
2023-02-27T06:19:32.704Z,101583.66
2023-02-27T06:21:59.559Z,101583.97
2023-02-27T06:24:26.797Z,101584.13
2023-02-27T06:26:53.639Z,101590.06
2023-02-27T06:29:20.452Z,101597.59
2023-02-27T06:31:47.504Z,101592.50
2023-02-27T06:34:14.271Z,101597.09
2023-02-27T06:36:40.799Z,101595.44
2023-02-27T06:39:07.529Z,101598.22
2023-02-27T06:41:34.264Z,101604.84
2023-02-27T06:44:00.945Z,101608.44
2023-02-27T06:46:28.084Z,101608.97
2023-02-27T06:48:54.819Z,101611.13
2023-02-27T06:51:21.443Z,101611.66
2023-02-27T06:53:48.565Z,101620.75
2023-02-27T06:56:15.374Z,101609.56
2023-02-27T06:58:41.948Z,101611.91
2023-02-27T07:01:08.721Z,101613.22
2023-02-27T07:03:35.524Z,101614.72
2023-02-27T07:06:02.618Z,101620.81
2023-02-27T07:08:29.140Z,101629.72
2023-02-27T07:10:55.773Z,101621.13
2023-02-27T07:13:22.517Z,101629.72
2023-02-27T07:15:50.407Z,101632.19
2023-02-27T07:18:17.131Z,101632.34
2023-02-27T07:20:44.053Z,101632.69
2023-02-27T07:23:10.840Z,101645.41
2023-02-27T07:25:37.347Z,101643.91
2023-02-27T07:28:07.096Z,101644.28
2023-02-27T07:30:34.467Z,101638.69
2023-02-27T07:33:01.116Z,101642.31
2023-02-27T07:35:28.293Z,101641.16
2023-02-27T07:37:54.831Z,101647.63
2023-02-27T07:40:21.620Z,101641.38
2023-02-27T07:42:49.121Z,101648.66
2023-02-27T07:45:20.419Z,101650.81
2023-02-27T07:47:47.054Z,101656.63
2023-02-27T07:50:14.344Z,101649.88
2023-02-27T07:52:41.526Z,101655.97
2023-02-27T07:55:09.550Z,101657.97
2023-02-27T07:57:36.358Z,101656.16
2023-02-27T08:00:04.754Z,101648.91
2023-02-27T08:02:38.711Z,101641.00
2023-02-27T08:05:06.054Z,101639.56
2023-02-27T08:07:32.667Z,101643.16
2023-02-27T08:09:59.434Z,101642.00
2023-02-27T08:12:26.331Z,101636.44
2023-02-27T08:14:53.051Z,101631.34
2023-02-27T08:17:19.862Z,101637.63
2023-02-27T08:19:46.658Z,101634.19
2023-02-27T08:22:13.278Z,101637.78
2023-02-27T08:24:40.567Z,101634.34
2023-02-27T08:27:07.539Z,101639.13
2023-02-27T08:29:34.130Z,101644.59
2023-02-27T08:32:02.592Z,101635.50
2023-02-27T08:34:30.306Z,101638.31
2023-02-27T08:36:57.471Z,101629.72
2023-02-27T08:39:24.325Z,101631.06
2023-02-27T08:41:52.725Z,101630.25
2023-02-27T08:44:20.077Z,101631.38
2023-02-27T08:46:46.768Z,101635.03
2023-02-27T08:49:13.753Z,101638.00
2023-02-27T08:51:40.462Z,101634.19
2023-02-27T08:54:07.064Z,101641.63
2023-02-27T08:56:34.932Z,101636.66
2023-02-27T08:59:02.318Z,101641.44
2023-02-27T09:01:34.449Z,101647.88
2023-02-27T09:04:02.308Z,101640.59
2023-02-27T09:06:29.579Z,101639.59
2023-02-27T09:08:57.157Z,101643.91
2023-02-27T09:11:23.979Z,101639.72
2023-02-27T09:13:51.480Z,101640.22
2023-02-27T09:16:18.994Z,101646.81
2023-02-27T09:18:45.735Z,101635.91
2023-02-27T09:21:12.352Z,101642.19
2023-02-27T09:23:39.026Z,101645.50
2023-02-27T09:26:05.628Z,101647.84
2023-02-27T09:28:32.466Z,101642.88
2023-02-27T09:31:05.922Z,101652.59
2023-02-27T09:33:33.058Z,101645.97
2023-02-27T09:35:59.651Z,101655.22
2023-02-27T09:38:26.277Z,101657.22
2023-02-27T09:40:53.334Z,101664.66
2023-02-27T09:43:25.860Z,101650.63
2023-02-27T09:45:54.772Z,101657.00
2023-02-27T09:48:24.459Z,101667.09
2023-02-27T09:50:52.614Z,101668.22
2023-02-27T09:53:27.477Z,101659.94
2023-02-27T09:56:17.484Z,101664.50
2023-02-27T09:58:44.117Z,101676.63
2023-02-27T10:01:14.855Z,101683.03
2023-02-27T10:03:41.810Z,101680.66
2023-02-27T10:06:21.654Z,101689.13
2023-02-27T10:08:56.533Z,101688.25
2023-02-27T10:11:32.722Z,101681.50
2023-02-27T10:14:16.734Z,101680.81
2023-02-27T10:16:43.436Z,101693.19
2023-02-27T10:19:15.206Z,101690.75
2023-02-27T10:21:44.136Z,101688.16
2023-02-27T10:24:10.754Z,101690.06
2023-02-27T10:26:39.685Z,101694.47
2023-02-27T10:29:16.116Z,101680.47
2023-02-27T10:31:44.002Z,101665.03
2023-02-27T10:34:16.527Z,101651.03
2023-02-27T10:36:45.141Z,101655.09
2023-02-27T10:39:13.996Z,101653.63
2023-02-27T10:41:40.728Z,101655.19
2023-02-27T10:44:07.352Z,101657.16
2023-02-27T10:46:35.685Z,101659.44
2023-02-27T10:49:05.564Z,101663.34
2023-02-27T10:51:35.038Z,101661.25
2023-02-27T10:54:14.193Z,101668.09
2023-02-27T10:56:40.919Z,101670.53
2023-02-27T10:59:16.901Z,101661.00
2023-02-27T11:01:48.900Z,101655.69
2023-02-27T11:04:23.698Z,101670.72
2023-02-27T11:06:52.531Z,101638.00
2023-02-27T11:09:26.573Z,101648.25
2023-02-27T11:11:53.963Z,101639.81
2023-02-27T11:14:27.889Z,101658.50
2023-02-27T11:16:56.028Z,101658.38
2023-02-27T11:19:29.507Z,101653.53
2023-02-27T11:22:02.164Z,101650.47
2023-02-27T11:24:29.102Z,101635.69
2023-02-27T11:26:58.771Z,101632.00
2023-02-27T11:29:26.390Z,101632.81
2023-02-27T11:32:04.728Z,101628.66
2023-02-27T11:34:32.283Z,101625.72
2023-02-27T11:37:22.198Z,101630.59
2023-02-27T11:39:50.962Z,101625.41
2023-02-27T11:42:23.488Z,101620.50
2023-02-27T11:44:53.393Z,101616.00
2023-02-27T11:47:22.759Z,101613.81
2023-02-27T11:49:49.430Z,101611.91
2023-02-27T11:52:34.754Z,101611.47
2023-02-27T11:55:04.014Z,101610.44
2023-02-27T11:57:33.744Z,101614.69
2023-02-27T12:00:03.656Z,101613.31
2023-02-27T12:02:46.079Z,101609.63
2023-02-27T12:05:18.361Z,101614.19
2023-02-27T12:07:49.540Z,101607.25
2023-02-27T12:10:16.096Z,101602.66
2023-02-27T12:12:51.986Z,101597.50
2023-02-27T12:15:30.542Z,101602.50
2023-02-27T12:18:03.453Z,101623.88
2023-02-27T12:20:35.132Z,101601.63
2023-02-27T12:23:04.249Z,101594.50
2023-02-27T12:25:37.209Z,101586.22
2023-02-27T12:28:13.083Z,101581.06
2023-02-27T12:30:42.580Z,101576.97
2023-02-27T12:33:20.886Z,101582.09
2023-02-27T12:35:52.502Z,101574.22
2023-02-27T12:38:22.223Z,101572.31
2023-02-27T12:40:58.485Z,101570.34
2023-02-27T12:43:31.205Z,101562.41
2023-02-27T12:45:58.054Z,101564.81
2023-02-27T12:48:38.278Z,101566.34
2023-02-27T12:51:23.830Z,101581.63
2023-02-27T12:54:09.396Z,101584.97
2023-02-27T12:56:51.160Z,101588.25
2023-02-27T12:59:21.352Z,101597.34
2023-02-27T13:02:04.023Z,101589.84
2023-02-27T13:04:33.641Z,101593.03
2023-02-27T13:07:23.207Z,101592.28
2023-02-27T13:10:01.288Z,101585.47
2023-02-27T13:12:51.176Z,101580.84
2023-02-27T13:15:23.719Z,101581.97
2023-02-27T13:17:58.425Z,101589.00
2023-02-27T13:20:29.529Z,101592.88
2023-02-27T13:22:59.022Z,101592.09
2023-02-27T13:25:26.134Z,101594.84
2023-02-27T13:28:00.341Z,101584.44
2023-02-27T13:30:35.659Z,101584.03
2023-02-27T13:33:21.313Z,101584.81
2023-02-27T13:35:52.157Z,101589.34
2023-02-27T13:38:32.199Z,101587.94
2023-02-27T13:41:18.791Z,101591.47
2023-02-27T13:43:52.132Z,101585.31
2023-02-27T13:46:26.530Z,101585.38
2023-02-27T13:48:54.524Z,101586.16
2023-02-27T13:51:36.580Z,101580.81
2023-02-27T13:54:18.378Z,101593.13
2023-02-27T13:56:48.050Z,101600.09
2023-02-27T13:59:23.816Z,101596.31
2023-02-27T14:01:55.584Z,101596.25
2023-02-27T14:04:27.543Z,101589.63
2023-02-27T14:07:05.624Z,101599.13
2023-02-27T14:09:41.110Z,101592.97
2023-02-27T14:12:30.894Z,101603.63
2023-02-27T14:15:05.643Z,101601.63
2023-02-27T14:17:35.225Z,101589.00
2023-02-27T14:20:02.703Z,101607.03
2023-02-27T14:22:34.680Z,101598.22
2023-02-27T14:25:13.608Z,101592.84
2023-02-27T14:27:51.145Z,101602.25
2023-02-27T14:30:28.301Z,101596.69
2023-02-27T14:32:57.773Z,101602.25
2023-02-27T14:35:27.623Z,101617.09
2023-02-27T14:37:54.588Z,101601.03
2023-02-27T14:40:29.738Z,101612.94
2023-02-27T14:43:05.262Z,101612.41
2023-02-27T14:45:31.804Z,101607.88
2023-02-27T14:47:58.563Z,101605.41
2023-02-27T14:50:33.980Z,101599.41
2023-02-27T14:53:01.661Z,101602.31
2023-02-27T14:55:30.125Z,101595.41
2023-02-27T14:57:59.089Z,101591.91
2023-02-27T15:00:30.070Z,101592.56
2023-02-27T15:02:58.015Z,101597.19
2023-02-27T15:05:28.390Z,101596.50
2023-02-27T15:07:55.032Z,101596.16
2023-02-27T15:10:31.972Z,101591.94
2023-02-27T15:12:59.959Z,101592.31
2023-02-27T15:15:26.561Z,101591.59
2023-02-27T15:17:53.826Z,101597.75
2023-02-27T15:20:23.618Z,101597.25
2023-02-27T15:22:50.890Z,101594.06
2023-02-27T15:25:32.844Z,101595.69
2023-02-27T15:28:06.463Z,101595.63
2023-02-27T15:30:33.360Z,101594.00
2023-02-27T15:33:00.825Z,101594.84
2023-02-27T15:35:46.178Z,101598.56
2023-02-27T15:38:29.501Z,101600.50
2023-02-27T15:40:57.196Z,101607.16
2023-02-27T15:43:24.865Z,101600.84
2023-02-27T15:45:52.582Z,101601.81
2023-02-27T15:48:19.780Z,101595.72
2023-02-27T15:50:47.722Z,101601.44
2023-02-27T15:53:18.875Z,101605.50
2023-02-27T15:56:06.188Z,101597.66
2023-02-27T15:58:43.475Z,101603.28
2023-02-27T16:01:17.334Z,101600.75
2023-02-27T16:03:45.683Z,101608.84
2023-02-27T16:06:15.569Z,101616.94
2023-02-27T16:08:45.567Z,101615.00
2023-02-27T16:11:19.096Z,101620.16
2023-02-27T16:13:46.072Z,101616.34
2023-02-27T16:16:24.091Z,101625.88
2023-02-27T16:18:50.717Z,101623.47
2023-02-27T16:21:18.623Z,101623.72
2023-02-27T16:23:45.758Z,101625.63
2023-02-27T16:26:31.038Z,101639.91
2023-02-27T16:28:58.112Z,101642.13
2023-02-27T16:31:25.054Z,101648.69
2023-02-27T16:33:52.212Z,101644.63
2023-02-27T16:36:21.375Z,101642.38
2023-02-27T16:38:49.379Z,101652.03
2023-02-27T16:41:17.908Z,101656.16
2023-02-27T16:43:46.267Z,101656.41
2023-02-27T16:46:20.325Z,101658.34
2023-02-27T16:48:51.869Z,101655.34
2023-02-27T16:51:19.368Z,101672.53
2023-02-27T16:53:49.216Z,101656.72
2023-02-27T16:56:17.085Z,101666.59
2023-02-27T16:58:45.302Z,101672.31
2023-02-27T17:01:15.374Z,101674.06
2023-02-27T17:03:42.744Z,101675.44
2023-02-27T17:06:11.838Z,101681.81
2023-02-27T17:08:39.490Z,101680.25
2023-02-27T17:11:06.484Z,101686.44
2023-02-27T17:13:33.158Z,101683.91
2023-02-27T17:15:59.808Z,101685.53
2023-02-27T17:18:27.733Z,101690.84
2023-02-27T17:20:56.979Z,101692.84
2023-02-27T17:23:23.564Z,101696.53
2023-02-27T17:25:51.926Z,101704.53
2023-02-27T17:28:18.532Z,101717.78
2023-02-27T17:30:45.233Z,101718.13
2023-02-27T17:33:11.826Z,101715.47
2023-02-27T17:35:39.005Z,101722.50
2023-02-27T17:38:07.430Z,101725.16
2023-02-27T17:40:36.456Z,101731.75
2023-02-27T17:43:03.463Z,101725.47
2023-02-27T17:45:30.367Z,101730.78
2023-02-27T17:47:56.965Z,101728.84
2023-02-27T17:50:23.490Z,101734.97
2023-02-27T17:52:50.128Z,101742.44
2023-02-27T17:55:17.114Z,101740.34
2023-02-27T17:57:44.249Z,101744.16
2023-02-27T18:00:15.820Z,101745.03
2023-02-27T18:02:45.809Z,101749.97
2023-02-27T18:05:13.046Z,101750.56
2023-02-27T18:07:39.993Z,101755.41
2023-02-27T18:10:10.176Z,101757.25
2023-02-27T18:12:51.411Z,101762.72
2023-02-27T18:15:18.244Z,101766.38
2023-02-27T18:17:44.933Z,101767.59
2023-02-27T18:20:12.249Z,101763.47
2023-02-27T18:22:38.890Z,101764.66
2023-02-27T18:25:06.041Z,101755.88
2023-02-27T18:27:32.656Z,101766.13
2023-02-27T18:29:59.348Z,101776.88
2023-02-27T18:32:25.854Z,101774.06
2023-02-27T18:34:53.568Z,101772.41
2023-02-27T18:37:20.322Z,101764.66
2023-02-27T18:39:47.174Z,101781.00
2023-02-27T18:42:13.763Z,101777.00
2023-02-27T18:44:41.430Z,101774.72
2023-02-27T18:47:08.092Z,101771.06
2023-02-27T18:49:34.942Z,101781.84
2023-02-27T18:52:01.899Z,101779.38
2023-02-27T18:54:28.630Z,101777.38
2023-02-27T18:56:55.429Z,101773.25
2023-02-27T18:59:22.003Z,101784.00
2023-02-27T19:01:48.616Z,101779.66
2023-02-27T19:04:15.168Z,101781.13
2023-02-27T19:06:42.331Z,101781.28
2023-02-27T19:09:10.733Z,101777.38
2023-02-27T19:11:38.540Z,101777.78
2023-02-27T19:14:06.861Z,101780.91
2023-02-27T19:16:34.063Z,101790.03
2023-02-27T19:19:01.521Z,101788.19
2023-02-27T19:21:28.466Z,101782.13
2023-02-27T19:23:55.135Z,101783.13
2023-02-27T19:26:21.853Z,101783.44
2023-02-27T19:28:53.862Z,101778.50
2023-02-27T19:31:21.733Z,101778.16
2023-02-27T19:33:48.567Z,101777.50
2023-02-27T19:36:16.303Z,101782.50
2023-02-27T19:38:42.947Z,101783.00
2023-02-27T19:41:11.228Z,101781.00
2023-02-27T19:43:41.342Z,101781.84
2023-02-27T19:46:09.804Z,101789.44
2023-02-27T19:48:36.586Z,101781.66
2023-02-27T19:51:03.909Z,101781.47
2023-02-27T19:53:30.916Z,101784.13
2023-02-27T19:55:59.808Z,101792.75
2023-02-27T19:58:26.374Z,101778.53
2023-02-27T20:00:52.999Z,101787.94
2023-02-27T20:03:19.548Z,101796.38
2023-02-27T20:05:46.249Z,101793.06
2023-02-27T20:08:12.895Z,101790.56
2023-02-27T20:10:39.611Z,101790.75
2023-02-27T20:13:06.260Z,101789.44
2023-02-27T20:15:32.753Z,101790.63
2023-02-27T20:17:59.301Z,101787.47
2023-02-27T20:20:25.919Z,101790.09
2023-02-27T20:22:52.622Z,101792.06
2023-02-27T20:25:19.523Z,101785.59
2023-02-27T20:27:46.107Z,101785.16
2023-02-27T20:30:12.828Z,101780.16
2023-02-27T20:32:39.535Z,101779.44
2023-02-27T20:35:06.538Z,101789.31
2023-02-27T20:37:35.609Z,101788.44
2023-02-27T20:40:04.166Z,101787.84
2023-02-27T20:42:30.992Z,101784.03
2023-02-27T20:44:57.876Z,101784.53
2023-02-27T20:47:24.473Z,101779.78
2023-02-27T20:49:53.769Z,101777.38
2023-02-27T20:52:20.402Z,101783.19
2023-02-27T20:54:47.035Z,101785.84
2023-02-27T20:57:13.721Z,101780.88
2023-02-27T20:59:40.428Z,101777.94
2023-02-27T21:02:08.580Z,101775.94
2023-02-27T21:04:43.226Z,101780.56
2023-02-27T21:07:11.037Z,101784.19
2023-02-27T21:09:38.103Z,101790.50
2023-02-27T21:12:05.825Z,101787.06
2023-02-27T21:14:32.740Z,101789.03
2023-02-27T21:16:59.419Z,101791.31
2023-02-27T21:19:26.116Z,101785.06
2023-02-27T21:21:52.641Z,101787.53
2023-02-27T21:24:20.822Z,101793.13
2023-02-27T21:26:47.626Z,101794.16
2023-02-27T21:29:15.511Z,101792.19
2023-02-27T21:31:45.511Z,101794.16
2023-02-27T21:34:13.992Z,101790.22
2023-02-27T21:36:43.965Z,101792.50
2023-02-27T21:39:15.202Z,101792.50
2023-02-27T21:41:41.763Z,101782.56
2023-02-27T21:44:09.059Z,101784.38
2023-02-27T21:46:40.312Z,101775.56
2023-02-27T21:49:07.258Z,101772.72
2023-02-27T21:51:40.507Z,101779.72
2023-02-27T21:54:10.016Z,101776.56
2023-02-27T21:56:36.990Z,101779.50
2023-02-27T21:59:04.231Z,101774.19
2023-02-27T22:01:31.352Z,101773.88
2023-02-27T22:03:58.212Z,101764.63
2023-02-27T22:06:26.100Z,101763.63
2023-02-27T22:08:54.310Z,101758.47
2023-02-27T22:11:20.876Z,101754.00
2023-02-27T22:13:47.515Z,101762.28
2023-02-27T22:16:14.113Z,101763.63
2023-02-27T22:18:40.994Z,101758.69
2023-02-27T22:21:08.914Z,101764.94
2023-02-27T22:23:35.996Z,101761.00
2023-02-27T22:26:03.906Z,101757.53
2023-02-27T22:28:31.502Z,101759.69
2023-02-27T22:31:07.483Z,101755.69
2023-02-27T22:33:34.467Z,101761.66
2023-02-27T22:36:04.085Z,101760.19
2023-02-27T22:38:30.653Z,101759.53
2023-02-27T22:41:03.049Z,101756.06
2023-02-27T22:43:31.386Z,101762.34
2023-02-27T22:45:58.257Z,101760.22
2023-02-27T22:48:25.370Z,101757.75
2023-02-27T22:50:59.080Z,101755.28
2023-02-27T22:53:28.046Z,101760.09
2023-02-27T22:55:57.817Z,101755.16
2023-02-27T22:58:24.513Z,101759.44
2023-02-27T23:00:51.604Z,101756.47
2023-02-27T23:03:18.283Z,101761.78
2023-02-27T23:05:45.626Z,101756.50
2023-02-27T23:08:12.652Z,101754.34
2023-02-27T23:10:39.525Z,101761.28
2023-02-27T23:13:06.209Z,101761.13
2023-02-27T23:15:34.205Z,101756.34
2023-02-27T23:18:00.831Z,101759.16
2023-02-27T23:20:27.477Z,101758.66
2023-02-27T23:22:54.053Z,101762.63
2023-02-27T23:25:20.767Z,101763.94
2023-02-27T23:27:47.240Z,101760.31
2023-02-27T23:30:14.013Z,101763.13
2023-02-27T23:32:44.123Z,101756.88
2023-02-27T23:35:11.640Z,101756.03
2023-02-27T23:37:38.619Z,101760.47
2023-02-27T23:40:08.467Z,101760.16
2023-02-27T23:42:35.025Z,101767.09
2023-02-27T23:45:20.147Z,101770.38
2023-02-27T23:47:51.814Z,101765.09
2023-02-27T23:50:22.792Z,101770.38
2023-02-27T23:52:50.514Z,101771.03
2023-02-27T23:55:18.555Z,101770.22
2023-02-27T23:57:45.139Z,101766.44
